TimeCDT,TemperatureF,Dew PointF,Humidity,Sea Level PressureIn,VisibilityMPH,Wind Direction,Wind SpeedMPH,Gust SpeedMPH,PrecipitationIn,Events,Conditions,WindDirDegrees,DateUTC
12:52 AM,59.0,55.9,90,30.21,10.0,Calm,Calm,-,N/A,,Clear,0,2013-08-04 05:52:00
1:52 AM,55.9,54.0,93,30.18,10.0,West,3.5,-,N/A,,Clear,260,2013-08-04 06:52:00
2:52 AM,57.0,55.0,93,30.16,10.0,Calm,Calm,-,N/A,,Clear,0,2013-08-04 07:52:00
3:52 AM,52.0,51.1,97,30.17,10.0,South,3.5,-,N/A,,Clear,190,2013-08-04 08:52:00
4:52 AM,52.0,50.0,93,30.19,10.0,Calm,Calm,-,N/A,,Clear,0,2013-08-04 09:52:00
5:52 AM,53.1,52.0,96,30.20,10.0,Calm,Calm,-,N/A,,Clear,0,2013-08-04 10:52:00
6:52 AM,53.1,52.0,96,30.20,10.0,Calm,Calm,-,N/A,,Clear,0,2013-08-04 11:52:00
7:52 AM,61.0,55.0,81,30.19,10.0,ENE,4.6,-,N/A,,Scattered Clouds,70,2013-08-04 12:52:00
8:52 AM,64.0,55.9,75,30.17,10.0,East,5.8,-,N/A,,Clear,90,2013-08-04 13:52:00
9:52 AM,68.0,57.0,68,30.19,10.0,East,3.5,-,N/A,,Clear,90,2013-08-04 14:52:00
10:52 AM,72.0,57.9,61,30.18,10.0,SSE,4.6,-,N/A,,Scattered Clouds,160,2013-08-04 15:52:00
11:52 AM,71.1,59.0,66,30.17,10.0,South,5.8,-,N/A,,Partly Cloudy,170,2013-08-04 16:52:00
12:52 PM,68.0,62.1,81,30.15,10.0,South,3.5,-,0.00,Rain,Light Rain,180,2013-08-04 17:52:00
1:06 PM,66.2,62.6,88,30.15,9.0,South,6.9,-,0.01,Rain-Thunderstorm,Light Rain,180,2013-08-04 18:06:00
1:21 PM,66.2,60.8,83,30.08,10.0,South,20.7,-,0.03,Rain,Light Rain,170,2013-08-04 18:21:00
1:52 PM,68.0,62.1,81,30.07,10.0,ESE,5.8,-,0.06,Rain,Light Rain,120,2013-08-04 18:52:00
2:52 PM,73.9,63.0,68,30.07,10.0,SE,8.1,-,0.00,,Clear,130,2013-08-04 19:52:00
3:52 PM,75.9,62.1,62,30.08,10.0,SSE,5.8,-,N/A,,Clear,150,2013-08-04 20:52:00
4:52 PM,77.0,61.0,58,30.06,10.0,SE,4.6,-,N/A,,Clear,140,2013-08-04 21:52:00
5:52 PM,77.0,63.0,62,30.04,10.0,SE,9.2,-,N/A,,Mostly Cloudy,130,2013-08-04 22:52:00
6:52 PM,75.9,64.0,67,30.03,10.0,ESE,8.1,-,N/A,,Mostly Cloudy,120,2013-08-04 23:52:00
7:52 PM,75.0,64.9,71,30.01,10.0,ESE,5.8,-,N/A,,Overcast,120,2013-08-05 00:52:00
8:52 PM,73.0,64.9,76,30.01,10.0,SE,4.6,-,N/A,,Overcast,130,2013-08-05 01:52:00
9:52 PM,71.1,66.0,84,30.01,10.0,SE,4.6,-,N/A,,Overcast,140,2013-08-05 02:52:00
10:52 PM,72.0,64.9,78,30.01,10.0,SSE,5.8,-,N/A,,Overcast,160,2013-08-05 03:52:00
11:52 PM,70.0,64.0,81,30.00,10.0,South,6.9,-,N/A,,Partly Cloudy,180,2013-08-05 04:52:00